createdAt,value
2023-01-20T00:04:40.300Z,67.13
2023-01-20T00:14:42.363Z,66.73
2023-01-20T00:24:44.473Z,66.86
2023-01-20T00:34:46.556Z,66.29
2023-01-20T00:44:49.518Z,67.27
2023-01-20T00:54:51.766Z,65.58
2023-01-20T01:04:54.009Z,68.23
2023-01-20T01:14:56.196Z,65.08
2023-01-20T01:24:59.541Z,68.46
2023-01-20T01:35:01.807Z,68.62
2023-01-20T01:45:11.310Z,67.51
2023-01-20T01:55:15.263Z,65.51
2023-01-20T02:05:18.246Z,64.50
2023-01-20T02:15:26.453Z,63.05
2023-01-20T02:25:57.008Z,63.01
2023-01-20T02:36:03.651Z,66.43
2023-01-20T02:46:24.647Z,63.96
2023-01-20T02:56:28.854Z,63.32
2023-01-20T03:06:38.483Z,63.54
2023-01-20T03:16:41.140Z,62.47
2023-01-20T03:26:43.261Z,66.47
2023-01-20T03:36:46.059Z,66.71
2023-01-20T03:46:53.405Z,68.51
2023-01-20T03:57:04.191Z,64.61
2023-01-20T04:07:08.877Z,65.86
2023-01-20T04:17:11.501Z,65.64
2023-01-20T04:27:13.568Z,65.38
2023-01-20T04:37:15.623Z,66.67
2023-01-20T04:47:17.799Z,64.95
2023-01-20T04:57:20.087Z,63.65
2023-01-20T05:07:22.272Z,63.94
2023-01-20T05:17:24.588Z,64.27
2023-01-20T05:27:26.866Z,65.31
2023-01-20T05:37:29.145Z,65.81
2023-01-20T05:47:31.240Z,63.33
2023-01-20T05:57:33.535Z,63.09
2023-01-20T06:07:36.935Z,62.25
2023-01-20T06:17:39.215Z,63.21
2023-01-20T06:27:41.511Z,61.91
2023-01-20T06:37:43.613Z,65.51
2023-01-20T06:47:50.121Z,64.63
2023-01-20T06:57:52.404Z,65.04
2023-01-20T07:07:54.568Z,65.44
2023-01-20T07:17:56.855Z,65.97
2023-01-20T07:27:59.286Z,62.77
2023-01-20T07:38:01.439Z,61.13
2023-01-20T07:48:04.044Z,60.04
2023-01-20T07:58:06.172Z,62.27
2023-01-20T08:08:08.285Z,62.00
2023-01-20T08:18:10.398Z,63.21
2023-01-20T08:28:12.998Z,62.21
2023-01-20T08:38:15.320Z,62.22
2023-01-20T08:48:19.911Z,59.59
2023-01-20T08:58:24.571Z,60.89
2023-01-20T09:08:27.596Z,61.28
2023-01-20T09:18:34.274Z,58.81
2023-01-20T09:28:36.579Z,56.64
2023-01-20T09:38:57.512Z,58.58
2023-01-20T09:49:37.230Z,58.11
2023-01-20T09:59:44.285Z,59.29
2023-01-20T10:09:54.825Z,59.17
2023-01-20T10:20:04.776Z,61.42
2023-01-20T10:30:11.920Z,59.96
2023-01-20T10:40:19.949Z,57.85
2023-01-20T10:50:34.298Z,57.10
2023-01-20T11:00:36.959Z,57.35
2023-01-20T11:10:39.201Z,55.77
2023-01-20T11:21:02.594Z,54.62
2023-01-20T11:31:06.091Z,55.08
2023-01-20T11:41:25.152Z,56.79
2023-01-20T11:51:27.518Z,54.96
2023-01-20T12:01:31.575Z,55.14
2023-01-20T12:11:53.675Z,53.99
2023-01-20T12:21:59.279Z,54.08
2023-01-20T12:32:01.460Z,53.76
2023-01-20T12:42:22.334Z,52.86
2023-01-20T12:52:24.563Z,53.93
2023-01-20T13:02:45.547Z,54.75
2023-01-20T13:12:56.710Z,54.58
2023-01-20T13:23:01.600Z,52.99
2023-01-20T13:33:07.144Z,54.16
2023-01-20T13:43:24.021Z,53.07
2023-01-20T13:53:28.370Z,54.95
2023-01-20T14:04:04.589Z,53.11
2023-01-20T14:14:06.847Z,51.91
2023-01-20T14:24:30.660Z,51.91
2023-01-20T14:34:33.386Z,50.89
2023-01-20T14:44:35.584Z,53.14
2023-01-20T14:54:47.192Z,53.54
2023-01-20T15:04:50.382Z,53.36
2023-01-20T15:15:00.708Z,52.83
2023-01-20T15:25:07.956Z,51.14
2023-01-20T15:35:20.006Z,51.87
2023-01-20T15:45:22.403Z,51.87
2023-01-20T15:55:24.602Z,53.06
2023-01-20T16:05:28.117Z,55.70
2023-01-20T16:15:35.388Z,54.10
2023-01-20T16:25:39.163Z,55.21
2023-01-20T16:35:42.035Z,53.51
2023-01-20T16:45:45.210Z,53.00
2023-01-20T16:55:49.184Z,53.24
2023-01-20T17:05:51.453Z,53.39
2023-01-20T17:15:56.042Z,54.94
2023-01-20T17:25:58.689Z,56.00
2023-01-20T17:36:02.736Z,55.28
2023-01-20T17:46:19.130Z,55.15
2023-01-20T17:56:22.662Z,55.80
2023-01-20T18:06:26.411Z,57.31
2023-01-20T18:16:30.793Z,55.63
2023-01-20T18:26:34.301Z,57.30
2023-01-20T18:36:38.898Z,55.99
2023-01-20T18:46:41.451Z,57.11
2023-01-20T18:56:43.884Z,57.19
2023-01-20T19:06:46.349Z,58.46
2023-01-20T19:16:51.790Z,57.22
2023-01-20T19:26:54.075Z,58.51
2023-01-20T19:36:56.916Z,60.17
2023-01-20T19:47:04.225Z,60.02
2023-01-20T19:57:06.514Z,61.12
2023-01-20T20:07:09.124Z,59.47
2023-01-20T20:17:11.497Z,60.28
2023-01-20T20:27:13.928Z,60.32
2023-01-20T20:37:16.232Z,60.25
2023-01-20T20:47:18.718Z,62.06
2023-01-20T20:57:20.855Z,62.07
2023-01-20T21:07:23.122Z,63.41
2023-01-20T21:17:25.408Z,63.71
2023-01-20T21:27:31.277Z,61.28
2023-01-20T21:37:33.828Z,62.65
2023-01-20T21:47:36.053Z,63.34
2023-01-20T21:57:38.794Z,63.36
2023-01-20T22:07:40.966Z,64.66
2023-01-20T22:17:43.193Z,63.65
2023-01-20T22:27:48.134Z,62.63
2023-01-20T22:37:50.312Z,65.08
2023-01-20T22:47:52.591Z,62.46
2023-01-20T22:57:54.873Z,62.43
2023-01-20T23:07:57.053Z,63.27
2023-01-20T23:17:59.337Z,65.40
2023-01-20T23:28:01.729Z,64.23
2023-01-20T23:38:04.631Z,62.20
2023-01-20T23:48:07.747Z,64.84
2023-01-20T23:58:09.875Z,63.40
